Terminal Aerodrome Forecast
Issued by NWS Cleveland, OH

Home | Current Version | Previous Version | Text Only | Print | Product List | Glossary Off
Versions: 1 2 3 4 5 6 7 8 9 10 11 12 13 14 15 16 17 18 19 20 21 22 23 24 25 26 27 28 29 30 31 32

000
FTUS41 KCLE 051900 AAB
TAFERI
TAF AMD
KERI 051956Z 0520/0618 05006KT 1 1/2SM -SHRA BR SCT006 OVC040
      TEMPO 0520/0522 3SM -SHRA BKN006
     FM052200 03008KT 2SM -SHRA BR OVC025
     FM060400 08006KT 2SM -SHRA BR OVC010
      TEMPO 0609/0613 2SM -SHRA BR OVC006
     FM061400 05008KT 6SM -SHRA BR OVC015=

USA.gov is the U.S. government's official web portal to all federal, state and local government web resources and services.